Minerva Zenia — SYNB — position and weather

sailwx.info

Track history (hours):
 
Tides and Currents Weather Stations Pressure Air Temp Water Temp Dewpoint Dewpoint Depression Visibility Wind Speed Wind Dir Waves Ship Positions

Minerva Zenia

Last reported at 2015-Feb-27 13:19 UTC. Time now 2015-Feb-27 15:28 UTC.
Position N 38°15' W 010°16'.

Length 248 m; draft 8.5 m.

Type: Ship. MMSI: 240014000.

Date/timePositionNaut miles runAvg speedWind from/ knotsBaromVisibWave heightAir tempDewpointWater temp
2015-Feb-27 13:19N 38°15' W 010°16'1113.9
2015-Feb-27 12:33N 38°21' W 010°04'1313.4
2015-Feb-27 11:32N 38°27' W 009°49'1313.6
2015-Feb-27 10:33N 38°33' W 009°34'9 8.8
2015-Feb-27 09:33N 38°37' W 009°24'1010.1
2015-Feb-27 08:33N 38°41' W 009°12'1 0.5
2015-Feb-27 07:33N 38°41' W 009°11'0 0.1
2015-Feb-27 06:33N 38°41' W 009°12'0 0.0
2015-Feb-27 05:33N 38°41' W 009°12'0 0.2
2015-Feb-27 04:33N 38°41' W 009°12'0 0.1
2015-Feb-27 03:33N 38°41' W 009°12'0 0.1
2015-Feb-27 02:33N 38°41' W 009°12'0 0.0
2015-Feb-27 01:32N 38°41' W 009°12'0 0.1
2015-Feb-27 00:33N 38°41' W 009°12'0 0.0
2015-Feb-26 23:33N 38°41' W 009°12'839839.2
2015-Feb-26 22:33N 52°40' W 009°12'839821.4
2015-Feb-26 21:32N 38°41' W 009°11'0 0.0
2015-Feb-26 20:30N 38°41' W 009°11'0 0.0
2015-Feb-26 19:33N 38°41' W 009°11'0 0.0
2015-Feb-26 18:32N 38°41' W 009°11'0 0.1
2015-Feb-26 17:33N 38°41' W 009°11'0 0.0
2015-Feb-26 16:32N 38°41' W 009°12'0 0.1
2015-Feb-26 15:33N 38°41' W 009°12'0 0.1
2015-Feb-26 14:33N 38°41' W 009°12'0 0.1
2015-Feb-26 13:33N 38°41' W 009°12'3 2.7
2015-Feb-26 12:33N 38°41' W 009°15'8 8.1
2015-Feb-26 11:32N 38°38' W 009°25'2 1.9
2015-Feb-26 10:32N 38°36' W 009°26'4 4.6
2015-Feb-26 09:33N 38°32' W 009°26'4 4.4
2015-Feb-26 08:33N 38°30' W 009°32'8 7.9
2015-Feb-26 07:33N 38°33' W 009°41'1313.5
2015-Feb-26 06:33N 38°35' W 009°58'2612.6
2015-Feb-26 04:29N 39°01' W 010°06'347 8.8
2015-Feb-24 13:04N 43°54' W 005°57'5 6.4
2015-Feb-24 12:21N 43°53' W 005°51'22 6.7
2015-Feb-24 09:06N 43°52' W 005°21'  
2015-Feb-20 11:33N 44°00' W 005°36'4 3.6
2015-Feb-20 10:30N 43°57' W 005°34'1010.2
2015-Feb-20 09:33N 43°53' W 005°21'2811.4
2015-Feb-20 07:07N 43°50' W 004°43'3412.4
2015-Feb-20 04:25N 43°48' W 003°56'  
Track history (hours):
 
Tides and Currents Weather Stations Pressure Air Temp Water Temp Dewpoint Dewpoint Depression Visibility Wind Speed Wind Dir Waves Ship Positions

Minerva Zenia

Last reported at 2015-Feb-27 13:19 UTC. Time now 2015-Feb-27 15:28 UTC.
Position N 38°15' W 010°16'.

Length 248 m; draft 8.5 m.

Type: Ship. MMSI: 240014000.

Date/timePositionNaut miles runAvg speedWind from/ knotsBaromVisibWave heightAir tempDewpointWater temp
2015-Feb-27 13:19N 38°15' W 010°16'1113.9
2015-Feb-27 12:33N 38°21' W 010°04'1313.4
2015-Feb-27 11:32N 38°27' W 009°49'1313.6
2015-Feb-27 10:33N 38°33' W 009°34'9 8.8
2015-Feb-27 09:33N 38°37' W 009°24'1010.1
2015-Feb-27 08:33N 38°41' W 009°12'1 0.5
2015-Feb-27 07:33N 38°41' W 009°11'0 0.1
2015-Feb-27 06:33N 38°41' W 009°12'0 0.0
2015-Feb-27 05:33N 38°41' W 009°12'0 0.2
2015-Feb-27 04:33N 38°41' W 009°12'0 0.1
2015-Feb-27 03:33N 38°41' W 009°12'0 0.1
2015-Feb-27 02:33N 38°41' W 009°12'0 0.0
2015-Feb-27 01:32N 38°41' W 009°12'0 0.1
2015-Feb-27 00:33N 38°41' W 009°12'0 0.0
2015-Feb-26 23:33N 38°41' W 009°12'839839.2
2015-Feb-26 22:33N 52°40' W 009°12'839821.4
2015-Feb-26 21:32N 38°41' W 009°11'0 0.0
2015-Feb-26 20:30N 38°41' W 009°11'0 0.0
2015-Feb-26 19:33N 38°41' W 009°11'0 0.0
2015-Feb-26 18:32N 38°41' W 009°11'0 0.1
2015-Feb-26 17:33N 38°41' W 009°11'0 0.0
2015-Feb-26 16:32N 38°41' W 009°12'0 0.1
2015-Feb-26 15:33N 38°41' W 009°12'0 0.1
2015-Feb-26 14:33N 38°41' W 009°12'0 0.1
2015-Feb-26 13:33N 38°41' W 009°12'3 2.7
2015-Feb-26 12:33N 38°41' W 009°15'8 8.1
2015-Feb-26 11:32N 38°38' W 009°25'2 1.9
2015-Feb-26 10:32N 38°36' W 009°26'4 4.6
2015-Feb-26 09:33N 38°32' W 009°26'4 4.4
2015-Feb-26 08:33N 38°30' W 009°32'8 7.9
2015-Feb-26 07:33N 38°33' W 009°41'1313.5
2015-Feb-26 06:33N 38°35' W 009°58'2612.6
2015-Feb-26 04:29N 39°01' W 010°06'347 8.8
2015-Feb-24 13:04N 43°54' W 005°57'5 6.4
2015-Feb-24 12:21N 43°53' W 005°51'22 6.7
2015-Feb-24 09:06N 43°52' W 005°21'  
2015-Feb-20 11:33N 44°00' W 005°36'4 3.6
2015-Feb-20 10:30N 43°57' W 005°34'1010.2
2015-Feb-20 09:33N 43°53' W 005°21'2811.4
2015-Feb-20 07:07N 43°50' W 004°43'3412.4
2015-Feb-20 04:25N 43°48' W 003°56'  

Dump ship's entire track history